createdAt,value
2018-09-24T00:00:14.127Z,11.35
2018-09-24T00:02:43.828Z,11.31
2018-09-24T00:05:13.595Z,11.40
2018-09-24T00:07:43.123Z,11.45
2018-09-24T00:10:12.607Z,11.55
2018-09-24T00:12:42.871Z,11.43
2018-09-24T00:15:13.528Z,11.40
2018-09-24T00:17:42.924Z,11.39
2018-09-24T00:20:12.939Z,11.43
2018-09-24T00:22:43.467Z,11.37
2018-09-24T00:25:12.877Z,11.50
2018-09-24T00:27:42.989Z,11.45
2018-09-24T00:30:12.665Z,11.61
2018-09-24T00:32:42.112Z,11.80
2018-09-24T00:35:12.377Z,11.83
2018-09-24T00:37:42.092Z,11.81
2018-09-24T00:40:11.543Z,11.89
2018-09-24T00:42:41.714Z,11.92
2018-09-24T00:45:11.543Z,11.83
2018-09-24T00:47:41.021Z,11.60
2018-09-24T00:50:11.579Z,11.67
2018-09-24T00:52:41.023Z,11.45
2018-09-24T00:55:10.571Z,11.48
2018-09-24T00:57:40.189Z,11.47
2018-09-24T01:00:09.619Z,11.44
2018-09-24T01:02:39.128Z,11.41
2018-09-24T01:05:08.642Z,11.37
2018-09-24T01:07:38.871Z,11.09
2018-09-24T01:10:08.719Z,11.12
2018-09-24T01:12:38.188Z,11.22
2018-09-24T01:15:07.905Z,11.31
2018-09-24T01:17:37.243Z,11.20
2018-09-24T01:20:07.905Z,10.99
2018-09-24T01:22:37.376Z,11.19
2018-09-24T01:25:07.198Z,11.18
2018-09-24T01:27:37.110Z,11.12
2018-09-24T01:30:06.832Z,11.13
2018-09-24T01:32:36.180Z,11.13
2018-09-24T01:35:05.596Z,10.97
2018-09-24T01:37:34.993Z,11.07
2018-09-24T01:40:04.391Z,11.05
2018-09-24T01:42:33.802Z,10.96
2018-09-24T01:45:03.195Z,11.07
2018-09-24T01:47:32.572Z,11.01
2018-09-24T01:50:02.090Z,11.17
2018-09-24T01:52:31.881Z,11.09
2018-09-24T01:55:01.216Z,10.96
2018-09-24T01:57:30.548Z,10.95
2018-09-24T01:59:59.996Z,10.81
2018-09-24T02:02:29.336Z,10.81
2018-09-24T02:04:58.733Z,10.71
2018-09-24T02:07:28.168Z,10.53
2018-09-24T02:09:58.058Z,10.80
2018-09-24T02:12:27.529Z,10.75
2018-09-24T02:14:57.224Z,10.63
2018-09-24T02:17:26.571Z,10.51
2018-09-24T02:19:55.932Z,10.50
2018-09-24T02:22:29.368Z,10.59
2018-09-24T02:24:59.759Z,10.56
2018-09-24T02:27:29.133Z,10.58
2018-09-24T02:29:58.970Z,10.65
2018-09-24T02:32:28.370Z,10.73
2018-09-24T02:34:58.694Z,10.48
2018-09-24T02:37:28.043Z,10.59
2018-09-24T02:39:57.395Z,10.55
2018-09-24T02:42:26.900Z,10.70
2018-09-24T02:44:57.739Z,10.63
2018-09-24T02:47:32.682Z,10.76
2018-09-24T02:50:03.708Z,10.87
2018-09-24T02:52:33.115Z,10.90
2018-09-24T02:55:03.023Z,10.66
2018-09-24T02:57:32.421Z,10.60
2018-09-24T03:00:01.867Z,10.66
2018-09-24T03:02:31.177Z,10.56
2018-09-24T03:05:00.528Z,10.50
2018-09-24T03:07:29.826Z,10.50
2018-09-24T03:09:59.144Z,10.57
2018-09-24T03:12:28.535Z,10.42
2018-09-24T03:14:57.830Z,10.50
2018-09-24T03:17:27.178Z,10.67
2018-09-24T03:19:56.574Z,10.55
2018-09-24T03:22:26.727Z,10.52
2018-09-24T03:24:56.073Z,10.54
2018-09-24T03:27:25.462Z,10.55
2018-09-24T03:29:54.800Z,10.51
2018-09-24T03:32:24.096Z,10.64
2018-09-24T03:34:53.731Z,10.44
2018-09-24T03:37:23.018Z,10.54
2018-09-24T03:39:52.376Z,10.41
2018-09-24T03:42:21.732Z,10.44
2018-09-24T03:44:51.067Z,10.48
2018-09-24T03:47:20.387Z,10.43
2018-09-24T03:49:49.754Z,10.55
2018-09-24T03:52:19.136Z,10.53
2018-09-24T03:54:48.544Z,10.40
2018-09-24T03:57:18.452Z,10.40
2018-09-24T03:59:47.811Z,10.41
2018-09-24T04:02:17.154Z,10.42
2018-09-24T04:04:51.756Z,10.40
2018-09-24T04:07:26.384Z,10.55
2018-09-24T04:10:01.091Z,10.58
2018-09-24T04:12:35.513Z,10.60
2018-09-24T04:15:10.269Z,10.70
2018-09-24T04:17:44.943Z,10.58
2018-09-24T04:20:19.502Z,10.72
2018-09-24T04:22:54.129Z,10.79
2018-09-24T04:25:28.684Z,10.72
2018-09-24T04:28:03.266Z,10.83
2018-09-24T04:30:38.380Z,10.97
2018-09-24T04:33:12.860Z,10.99
2018-09-24T04:35:47.519Z,10.97
2018-09-24T04:38:22.174Z,11.05
2018-09-24T04:40:56.801Z,11.09
2018-09-24T04:43:31.363Z,11.03
2018-09-24T04:46:06.300Z,11.01
2018-09-24T04:48:40.847Z,11.05
2018-09-24T04:51:17.184Z,11.12
2018-09-24T04:53:51.977Z,11.15
2018-09-24T04:56:26.471Z,11.19
2018-09-24T04:59:01.117Z,10.89
2018-09-24T05:01:36.123Z,10.86
2018-09-24T05:04:10.733Z,11.00
2018-09-24T05:06:45.423Z,11.03
2018-09-24T05:09:19.888Z,10.95
2018-09-24T05:11:54.499Z,10.98
2018-09-24T05:14:29.178Z,11.04
2018-09-24T05:17:04.282Z,10.87
2018-09-24T05:19:38.952Z,10.72
2018-09-24T05:22:14.041Z,10.85
2018-09-24T05:24:48.664Z,11.03
2018-09-24T05:27:23.418Z,10.92
2018-09-24T05:29:57.755Z,10.83
2018-09-24T05:32:32.713Z,11.04
2018-09-24T05:35:07.268Z,11.02
2018-09-24T05:37:41.813Z,11.09
2018-09-24T05:40:16.387Z,10.87
2018-09-24T05:42:51.041Z,11.27
2018-09-24T05:45:25.534Z,11.87
2018-09-24T05:48:00.398Z,12.28
2018-09-24T05:50:34.835Z,12.50
2018-09-24T05:53:09.533Z,12.80
2018-09-24T05:55:44.120Z,12.87
2018-09-24T05:58:18.768Z,13.09
2018-09-24T06:00:53.516Z,12.56
2018-09-24T06:03:28.398Z,12.22
2018-09-24T06:06:02.949Z,12.09
2018-09-24T06:08:37.627Z,11.49
2018-09-24T06:11:12.329Z,11.44
2018-09-24T06:13:47.276Z,11.62
2018-09-24T06:16:21.876Z,12.08
2018-09-24T06:18:56.744Z,12.05
2018-09-24T06:21:31.320Z,11.84
2018-09-24T06:24:06.234Z,12.23
2018-09-24T06:26:41.021Z,13.54
2018-09-24T06:29:15.756Z,14.47
2018-09-24T06:31:50.475Z,14.28
2018-09-24T06:34:25.510Z,13.41
2018-09-24T06:36:59.943Z,12.82
2018-09-24T06:39:34.778Z,12.33
2018-09-24T06:42:09.301Z,12.08
2018-09-24T06:44:43.965Z,12.58
2018-09-24T06:47:18.622Z,13.79
2018-09-24T06:49:53.466Z,15.77
2018-09-24T06:52:28.008Z,17.52
2018-09-24T06:55:02.614Z,18.46
2018-09-24T06:57:37.200Z,19.47
2018-09-24T07:00:12.928Z,20.15
2018-09-24T07:02:47.431Z,20.11
2018-09-24T07:05:22.695Z,18.43
2018-09-24T07:07:57.323Z,18.65
2018-09-24T07:10:32.185Z,19.30
2018-09-24T07:13:06.937Z,20.79
2018-09-24T07:15:41.586Z,21.44
2018-09-24T07:18:16.179Z,21.27
2018-09-24T07:20:51.063Z,21.20
2018-09-24T07:23:25.788Z,21.06
2018-09-24T07:26:00.317Z,21.71
2018-09-24T07:28:34.936Z,22.06
2018-09-24T07:31:09.451Z,20.22
2018-09-24T07:33:44.041Z,20.53
2018-09-24T07:36:18.705Z,19.66
2018-09-24T07:38:53.369Z,17.85
2018-09-24T07:41:28.004Z,18.75
2018-09-24T07:44:02.615Z,21.30
2018-09-24T07:46:37.137Z,22.63
2018-09-24T07:49:12.011Z,23.94
2018-09-24T07:51:47.185Z,24.18
2018-09-24T07:54:21.835Z,24.89
2018-09-24T07:56:56.322Z,25.06
2018-09-24T07:59:30.848Z,25.34
2018-09-24T08:02:05.497Z,25.81
2018-09-24T08:04:40.339Z,25.82
2018-09-24T08:07:15.580Z,26.71
2018-09-24T08:09:50.241Z,26.99
2018-09-24T08:12:25.101Z,27.28
2018-09-24T08:14:59.668Z,27.69
2018-09-24T08:17:34.300Z,28.68
2018-09-24T08:20:08.812Z,28.91
2018-09-24T08:22:43.854Z,28.57
2018-09-24T08:25:18.563Z,29.16
2018-09-24T08:27:53.057Z,28.65
2018-09-24T08:30:27.743Z,27.66
2018-09-24T08:33:02.443Z,27.35
2018-09-24T08:35:36.905Z,28.50
2018-09-24T08:38:11.854Z,28.79
2018-09-24T08:40:46.714Z,28.96
2018-09-24T08:43:21.463Z,28.56
2018-09-24T08:45:56.198Z,29.48
2018-09-24T08:48:30.860Z,29.48
2018-09-24T08:51:05.278Z,30.36
2018-09-24T08:53:39.994Z,31.51
2018-09-24T08:56:14.781Z,30.73
2018-09-24T08:58:49.675Z,31.01
2018-09-24T09:01:24.334Z,28.73
2018-09-24T09:03:59.053Z,27.58
2018-09-24T09:06:33.679Z,26.56
2018-09-24T09:09:08.563Z,24.40
2018-09-24T09:11:43.041Z,22.00
2018-09-24T09:14:17.622Z,23.34
2018-09-24T09:16:52.240Z,23.04
2018-09-24T09:19:26.904Z,21.51
2018-09-24T09:22:01.529Z,23.80
2018-09-24T09:24:36.623Z,26.78
2018-09-24T09:27:11.281Z,25.08
2018-09-24T09:29:45.916Z,26.57
2018-09-24T09:32:20.493Z,28.49
2018-09-24T09:34:55.097Z,26.83
2018-09-24T09:37:29.723Z,26.93
2018-09-24T09:40:04.786Z,27.36
2018-09-24T09:42:39.420Z,29.14
2018-09-24T09:45:13.824Z,29.85
2018-09-24T09:47:48.330Z,30.66
2018-09-24T09:50:22.979Z,31.68
2018-09-24T09:52:57.584Z,30.73
2018-09-24T09:55:32.379Z,30.14
2018-09-24T09:58:06.882Z,29.71
2018-09-24T10:00:41.519Z,29.62
2018-09-24T10:03:16.215Z,29.04
2018-09-24T10:05:50.891Z,27.88
2018-09-24T10:08:25.427Z,26.23
2018-09-24T10:11:00.226Z,24.07
2018-09-24T10:13:34.744Z,22.77
2018-09-24T10:16:09.325Z,23.11
2018-09-24T10:18:43.909Z,23.53
2018-09-24T10:21:18.549Z,23.39
2018-09-24T10:23:53.213Z,23.59
2018-09-24T10:26:28.187Z,22.01
2018-09-24T10:29:02.709Z,21.01
2018-09-24T10:31:37.226Z,20.29
2018-09-24T10:34:11.699Z,20.42
2018-09-24T10:36:46.458Z,19.73
2018-09-24T10:39:21.013Z,18.11
2018-09-24T10:41:55.720Z,17.47
2018-09-24T10:44:30.203Z,17.16
2018-09-24T10:47:04.797Z,17.61
2018-09-24T10:49:39.416Z,17.29
2018-09-24T10:52:14.116Z,17.75
2018-09-24T10:54:48.763Z,18.40
2018-09-24T10:57:24.602Z,19.55
2018-09-24T10:59:59.220Z,20.93
2018-09-24T11:02:33.883Z,22.86
2018-09-24T11:05:08.472Z,22.24
2018-09-24T11:07:44.117Z,22.25
2018-09-24T11:10:18.871Z,23.24
2018-09-24T11:12:53.802Z,22.99
2018-09-24T11:15:28.522Z,25.95
2018-09-24T11:18:03.187Z,26.41
2018-09-24T11:20:37.866Z,28.28
2018-09-24T11:23:12.822Z,27.51
2018-09-24T11:25:47.856Z,26.08
2018-09-24T11:28:23.582Z,27.52
2018-09-24T11:30:58.816Z,30.28
2018-09-24T11:33:33.787Z,31.16
2018-09-24T11:36:08.868Z,29.95
2018-09-24T11:38:43.441Z,29.35
2018-09-24T11:41:18.226Z,29.06
2018-09-24T11:43:53.877Z,29.87
2018-09-24T11:46:28.456Z,29.69
2018-09-24T11:49:03.226Z,30.45
2018-09-24T11:51:37.861Z,29.38
2018-09-24T11:54:12.891Z,26.81
2018-09-24T11:56:47.373Z,28.47
2018-09-24T11:59:22.324Z,29.60
2018-09-24T12:01:56.874Z,28.94
2018-09-24T12:04:31.502Z,30.04
2018-09-24T12:07:06.128Z,29.72
2018-09-24T12:09:41.307Z,29.68
2018-09-24T12:12:15.949Z,29.56
2018-09-24T12:14:50.822Z,30.41
2018-09-24T12:17:25.649Z,31.80
2018-09-24T12:20:00.173Z,31.60
2018-09-24T12:22:34.980Z,30.21
2018-09-24T12:25:09.447Z,29.99
2018-09-24T12:27:44.029Z,28.56
2018-09-24T12:30:18.878Z,29.89
2018-09-24T12:32:53.533Z,31.32
2018-09-24T12:35:28.149Z,31.31
2018-09-24T12:38:02.660Z,30.52
2018-09-24T12:40:37.271Z,30.24
2018-09-24T12:43:11.758Z,30.92
2018-09-24T12:45:47.067Z,31.04
2018-09-24T12:48:21.846Z,29.14
2018-09-24T12:50:56.223Z,27.16
2018-09-24T12:53:30.811Z,26.10
2018-09-24T12:56:05.316Z,25.42
2018-09-24T12:58:39.848Z,26.67
2018-09-24T13:01:14.792Z,29.11
2018-09-24T13:03:49.622Z,29.76
2018-09-24T13:06:24.425Z,29.03
2018-09-24T13:08:59.049Z,30.50
2018-09-24T13:11:33.733Z,28.05
2018-09-24T13:14:08.344Z,26.01
2018-09-24T13:16:43.376Z,24.45
2018-09-24T13:19:18.063Z,24.91
2018-09-24T13:21:52.691Z,24.45
2018-09-24T13:24:27.258Z,23.88
2018-09-24T13:27:01.918Z,23.61
2018-09-24T13:29:36.364Z,23.60
2018-09-24T13:32:11.577Z,21.75
2018-09-24T13:34:46.264Z,20.14
2018-09-24T13:37:20.957Z,19.33
2018-09-24T13:39:55.668Z,20.58
2018-09-24T13:42:30.187Z,23.11
2018-09-24T13:45:04.741Z,24.51
2018-09-24T13:47:39.463Z,25.46
2018-09-24T13:50:13.987Z,25.66
2018-09-24T13:52:48.798Z,25.79
2018-09-24T13:55:23.427Z,25.85
2018-09-24T13:57:58.230Z,26.49
2018-09-24T14:00:32.880Z,27.57
2018-09-24T14:03:08.297Z,27.73
2018-09-24T14:05:43.027Z,27.80
2018-09-24T14:08:17.881Z,26.65
2018-09-24T14:10:52.519Z,26.62
2018-09-24T14:13:27.232Z,26.46
2018-09-24T14:16:01.928Z,25.76
2018-09-24T14:18:37.326Z,25.97
2018-09-24T14:21:11.783Z,26.81
2018-09-24T14:23:46.451Z,26.54
2018-09-24T14:26:20.991Z,26.08
2018-09-24T14:28:55.630Z,26.14
2018-09-24T14:31:30.234Z,25.17
2018-09-24T14:34:05.626Z,25.38
2018-09-24T14:36:40.298Z,24.78
2018-09-24T14:39:15.218Z,25.06
2018-09-24T14:41:49.983Z,25.49
2018-09-24T14:44:24.696Z,23.43
2018-09-24T14:46:59.190Z,21.80
2018-09-24T14:49:33.908Z,20.69
2018-09-24T14:52:08.598Z,20.37
2018-09-24T14:54:43.179Z,20.24
2018-09-24T14:57:17.956Z,20.04
2018-09-24T14:59:52.552Z,21.13
2018-09-24T15:02:27.587Z,22.53
2018-09-24T15:05:02.829Z,23.25
2018-09-24T15:07:37.351Z,22.90
2018-09-24T15:10:12.191Z,21.32
2018-09-24T15:12:46.819Z,21.45
2018-09-24T15:15:21.415Z,21.78
2018-09-24T15:17:56.004Z,22.27
2018-09-24T15:20:30.945Z,22.09
2018-09-24T15:23:05.484Z,20.84
2018-09-24T15:25:40.047Z,20.16
2018-09-24T15:28:14.736Z,19.52
2018-09-24T15:30:49.824Z,19.90
2018-09-24T15:33:24.598Z,20.48
2018-09-24T15:35:59.735Z,19.06
2018-09-24T15:38:34.387Z,19.09
2018-09-24T15:41:09.088Z,18.92
2018-09-24T15:43:43.672Z,18.27
2018-09-24T15:46:18.206Z,17.91
2018-09-24T15:48:52.755Z,17.51
2018-09-24T15:51:27.954Z,17.19
2018-09-24T15:54:02.391Z,17.31
2018-09-24T15:56:36.971Z,17.30
2018-09-24T15:59:11.786Z,16.78
2018-09-24T16:01:46.390Z,16.84
2018-09-24T16:04:21.016Z,16.76
2018-09-24T16:06:55.984Z,16.48
2018-09-24T16:09:30.612Z,16.15
2018-09-24T16:12:05.228Z,16.06
2018-09-24T16:14:39.674Z,15.83
2018-09-24T16:17:14.206Z,15.80
2018-09-24T16:19:48.820Z,15.85
2018-09-24T16:22:23.628Z,16.18
2018-09-24T16:24:57.995Z,16.25
2018-09-24T16:27:32.666Z,16.18
2018-09-24T16:30:07.272Z,16.41
2018-09-24T16:32:41.959Z,16.54
2018-09-24T16:35:16.837Z,16.35
2018-09-24T16:37:51.672Z,16.08
2018-09-24T16:40:27.525Z,15.95
2018-09-24T16:43:02.054Z,15.47
2018-09-24T16:45:36.814Z,15.51
2018-09-24T16:48:11.414Z,15.45
2018-09-24T16:50:46.096Z,15.33
2018-09-24T16:53:20.762Z,15.29
2018-09-24T16:55:55.370Z,15.02
2018-09-24T16:58:30.044Z,14.79
2018-09-24T17:01:04.812Z,14.02
2018-09-24T17:03:39.693Z,13.65
2018-09-24T17:06:14.295Z,13.56
2018-09-24T17:08:49.363Z,13.38
2018-09-24T17:11:23.873Z,13.46
2018-09-24T17:13:58.476Z,13.45
2018-09-24T17:16:33.131Z,13.35
2018-09-24T17:19:07.828Z,13.21
2018-09-24T17:21:42.351Z,13.12
2018-09-24T17:24:17.053Z,13.19
2018-09-24T17:26:51.693Z,13.02
2018-09-24T17:29:26.474Z,13.02
2018-09-24T17:32:01.090Z,12.76
2018-09-24T17:34:35.755Z,12.80
2018-09-24T17:37:10.427Z,12.69
2018-09-24T17:39:45.494Z,12.71
2018-09-24T17:42:20.250Z,12.60
2018-09-24T17:44:54.873Z,12.35
2018-09-24T17:47:29.448Z,12.18
2018-09-24T17:50:04.137Z,12.28
2018-09-24T17:52:38.577Z,12.04
2018-09-24T17:55:13.213Z,12.08
2018-09-24T17:57:48.012Z,11.80
2018-09-24T18:00:22.915Z,11.65
2018-09-24T18:02:57.720Z,11.81
2018-09-24T18:05:32.530Z,11.70
2018-09-24T18:08:07.068Z,11.96
2018-09-24T18:10:42.221Z,11.96
2018-09-24T18:13:16.921Z,12.07
2018-09-24T18:15:51.764Z,11.92
2018-09-24T18:18:26.580Z,11.99
2018-09-24T18:21:01.156Z,11.96
2018-09-24T18:23:35.946Z,12.08
2018-09-24T18:26:10.643Z,11.91
2018-09-24T18:28:46.390Z,12.03
2018-09-24T18:31:20.911Z,12.14
2018-09-24T18:33:55.882Z,11.93
2018-09-24T18:36:30.595Z,12.02
2018-09-24T18:39:05.272Z,11.86
2018-09-24T18:41:40.359Z,11.81
2018-09-24T18:44:15.446Z,11.71
2018-09-24T18:46:50.434Z,11.89
2018-09-24T18:49:25.190Z,11.76
2018-09-24T18:52:00.039Z,11.59
2018-09-24T18:54:34.763Z,11.65
2018-09-24T18:57:10.175Z,11.73
2018-09-24T18:59:44.911Z,11.51
2018-09-24T19:02:20.072Z,11.45
2018-09-24T19:04:55.840Z,11.41
2018-09-24T19:07:30.404Z,11.37
2018-09-24T19:10:05.170Z,11.47
2018-09-24T19:12:39.970Z,11.36
2018-09-24T19:15:14.835Z,11.45
2018-09-24T19:17:49.612Z,11.30
2018-09-24T19:20:24.041Z,11.23
2018-09-24T19:22:58.704Z,11.32
2018-09-24T19:25:33.338Z,11.23
2018-09-24T19:28:08.825Z,11.30
2018-09-24T19:30:45.185Z,11.02
2018-09-24T19:33:20.787Z,11.12
2018-09-24T19:35:55.473Z,11.09
2018-09-24T19:38:30.283Z,11.23
2018-09-24T19:41:05.972Z,11.16
2018-09-24T19:43:40.819Z,11.15
2018-09-24T19:46:23.603Z,10.87
2018-09-24T19:48:58.423Z,11.11
2018-09-24T19:51:33.160Z,11.19
2018-09-24T19:54:07.996Z,11.13
2018-09-24T19:56:42.778Z,11.16
2018-09-24T19:59:17.553Z,11.11
2018-09-24T20:01:52.281Z,11.18
2018-09-24T20:04:26.795Z,11.20
2018-09-24T20:07:01.547Z,11.00
2018-09-24T20:09:36.123Z,10.83
2018-09-24T20:12:10.961Z,10.73
2018-09-24T20:14:47.042Z,10.65
2018-09-24T20:17:23.028Z,10.65
2018-09-24T20:19:58.609Z,10.67
2018-09-24T20:22:33.293Z,10.72
2018-09-24T20:25:08.004Z,10.78
2018-09-24T20:27:42.485Z,10.60
2018-09-24T20:30:17.106Z,10.58
2018-09-24T20:32:51.773Z,10.51
2018-09-24T20:35:26.570Z,10.65
2018-09-24T20:38:01.010Z,10.72
2018-09-24T20:40:35.773Z,10.60
2018-09-24T20:43:10.368Z,10.54
2018-09-24T20:45:45.342Z,10.59
2018-09-24T20:48:19.879Z,10.46
2018-09-24T20:50:54.674Z,10.55
2018-09-24T20:53:29.278Z,10.71
2018-09-24T20:56:04.118Z,10.47
2018-09-24T20:58:38.774Z,10.40
2018-09-24T21:01:13.745Z,10.40
2018-09-24T21:03:48.461Z,10.42
2018-09-24T21:06:22.976Z,10.28
2018-09-24T21:08:57.421Z,10.22
2018-09-24T21:11:32.100Z,10.32
2018-09-24T21:14:06.776Z,10.23
2018-09-24T21:16:41.659Z,10.15
2018-09-24T21:19:17.531Z,10.20
2018-09-24T21:21:52.331Z,10.01
2018-09-24T21:24:27.026Z,10.10
2018-09-24T21:27:01.823Z,9.98
2018-09-24T21:29:36.505Z,9.93
2018-09-24T21:32:11.923Z,10.08
2018-09-24T21:34:47.203Z,10.08
2018-09-24T21:37:21.894Z,10.12
2018-09-24T21:39:56.489Z,9.99
2018-09-24T21:42:31.266Z,10.16
2018-09-24T21:45:05.941Z,10.09
2018-09-24T21:47:40.632Z,9.80
2018-09-24T21:50:15.323Z,9.68
2018-09-24T21:52:50.305Z,9.79
2018-09-24T21:55:25.340Z,9.92
2018-09-24T21:57:59.872Z,9.76
2018-09-24T22:00:34.622Z,9.80
2018-09-24T22:03:09.461Z,9.90
2018-09-24T22:05:44.124Z,9.90
2018-09-24T22:08:18.829Z,9.62
2018-09-24T22:10:53.477Z,9.76
2018-09-24T22:13:28.028Z,9.81
2018-09-24T22:16:02.634Z,9.69
2018-09-24T22:18:37.419Z,9.68
2018-09-24T22:21:12.080Z,9.45
2018-09-24T22:23:46.637Z,9.62
2018-09-24T22:26:21.288Z,9.51
2018-09-24T22:28:56.054Z,9.47
2018-09-24T22:31:30.582Z,9.60
2018-09-24T22:34:05.615Z,9.64
2018-09-24T22:36:40.280Z,9.46
2018-09-24T22:39:15.201Z,9.62
2018-09-24T22:41:49.855Z,9.49
2018-09-24T22:44:24.358Z,9.39
2018-09-24T22:46:58.938Z,9.47
2018-09-24T22:49:33.562Z,9.56
2018-09-24T22:52:08.039Z,9.49
2018-09-24T22:54:42.614Z,9.61
2018-09-24T22:57:17.229Z,9.57
2018-09-24T22:59:52.537Z,9.56
2018-09-24T23:02:27.079Z,9.68
2018-09-24T23:05:02.099Z,9.68
2018-09-24T23:07:36.830Z,9.74
2018-09-24T23:10:12.028Z,9.56
2018-09-24T23:12:46.656Z,9.72
2018-09-24T23:15:21.241Z,9.74
2018-09-24T23:17:55.846Z,9.67
2018-09-24T23:20:31.143Z,9.66
2018-09-24T23:23:05.750Z,9.55
2018-09-24T23:25:40.340Z,9.74
2018-09-24T23:28:14.919Z,9.78
2018-09-24T23:30:49.935Z,10.03
2018-09-24T23:33:24.709Z,10.01
2018-09-24T23:35:59.616Z,9.87
2018-09-24T23:38:34.318Z,9.89
2018-09-24T23:41:09.098Z,9.62
2018-09-24T23:43:43.567Z,9.55
2018-09-24T23:46:18.458Z,9.51
2018-09-24T23:48:53.256Z,9.36
2018-09-24T23:51:28.177Z,9.48
2018-09-24T23:54:02.696Z,9.54
2018-09-24T23:56:37.300Z,9.52
2018-09-24T23:59:11.851Z,9.37
